TimePDT,TemperatureF,Dew PointF,Humidity,Sea Level PressureIn,VisibilityMPH,Wind Direction,Wind SpeedMPH,Gust SpeedMPH,PrecipitationIn,Events,Conditions,WindDirDegrees,DateUTC
12:10 AM,59.0,51.8,77,30.17,10.0,East,6.9,-,N/A,,Clear,100,2012-10-14 07:10:00
12:30 AM,59.0,50.0,72,30.18,10.0,ESE,5.8,-,N/A,,Clear,110,2012-10-14 07:30:00
12:50 AM,59.0,50.0,72,30.19,10.0,ESE,8.1,-,N/A,,Clear,110,2012-10-14 07:50:00
1:10 AM,59.0,50.0,72,30.19,10.0,ESE,6.9,-,N/A,,Clear,110,2012-10-14 08:10:00
1:30 AM,59.0,50.0,72,30.20,10.0,ESE,8.1,-,N/A,,Clear,110,2012-10-14 08:30:00
1:50 AM,57.2,50.0,77,30.20,10.0,ESE,6.9,-,N/A,,Clear,120,2012-10-14 08:50:00
2:10 AM,57.2,50.0,77,30.20,10.0,SE,6.9,-,N/A,,Clear,140,2012-10-14 09:10:00
2:30 AM,57.2,51.8,82,30.19,10.0,SE,9.2,-,N/A,,Clear,140,2012-10-14 09:30:00
2:50 AM,57.2,51.8,82,30.19,10.0,SE,5.8,-,N/A,,Clear,140,2012-10-14 09:50:00
3:10 AM,57.2,50.0,77,30.19,10.0,SSE,5.8,-,N/A,,Clear,150,2012-10-14 10:10:00
3:30 AM,55.4,50.0,82,30.19,10.0,SSE,5.8,-,N/A,,Clear,160,2012-10-14 10:30:00
3:50 AM,55.4,50.0,82,30.19,10.0,SSE,5.8,-,N/A,,Clear,150,2012-10-14 10:50:00
4:10 AM,55.4,48.2,77,30.18,10.0,SSE,4.6,-,N/A,,Clear,150,2012-10-14 11:10:00
4:30 AM,55.4,48.2,77,30.18,10.0,SSE,6.9,-,N/A,,Clear,160,2012-10-14 11:30:00
4:50 AM,55.4,48.2,77,30.19,10.0,SE,5.8,-,N/A,,Clear,140,2012-10-14 11:50:00
5:10 AM,55.4,48.2,77,30.19,10.0,SE,3.5,-,N/A,,Clear,140,2012-10-14 12:10:00
5:30 AM,53.6,46.4,77,30.20,10.0,SE,3.5,-,N/A,,Clear,140,2012-10-14 12:30:00
5:50 AM,55.4,48.2,77,30.20,10.0,SE,3.5,-,N/A,,Clear,130,2012-10-14 12:50:00
6:10 AM,53.6,46.4,77,30.20,10.0,Calm,Calm,-,N/A,,Clear,0,2012-10-14 13:10:00
6:30 AM,55.4,48.2,77,30.20,10.0,East,3.5,-,N/A,,Clear,80,2012-10-14 13:30:00
6:50 AM,55.4,48.2,77,30.21,10.0,Calm,Calm,-,N/A,,Clear,0,2012-10-14 13:50:00
7:10 AM,53.6,48.2,82,30.21,10.0,SE,3.5,-,N/A,,Clear,130,2012-10-14 14:10:00
7:30 AM,55.4,48.2,77,30.21,10.0,Calm,Calm,-,N/A,,Clear,0,2012-10-14 14:30:00
7:50 AM,55.4,48.2,77,30.21,9.0,Calm,Calm,-,N/A,,Clear,0,2012-10-14 14:50:00
8:10 AM,57.2,48.2,72,30.21,10.0,Calm,Calm,-,N/A,,Clear,0,2012-10-14 15:10:00
8:30 AM,59.0,48.2,67,30.22,10.0,ENE,3.5,-,N/A,,Clear,60,2012-10-14 15:30:00
8:50 AM,62.6,50.0,63,30.22,9.0,Calm,Calm,-,N/A,,Clear,0,2012-10-14 15:50:00
9:10 AM,62.6,51.8,68,30.22,10.0,Calm,Calm,-,N/A,,Clear,0,2012-10-14 16:10:00
9:30 AM,64.4,51.8,64,30.23,10.0,ESE,3.5,-,N/A,,Clear,120,2012-10-14 16:30:00
9:50 AM,64.4,51.8,64,30.23,10.0,SSW,4.6,-,N/A,,Clear,200,2012-10-14 16:50:00
10:10 AM,66.2,51.8,60,30.22,10.0,SSE,3.5,-,N/A,,Clear,160,2012-10-14 17:10:00
10:30 AM,66.2,51.8,60,30.23,10.0,East,3.5,-,N/A,,Clear,90,2012-10-14 17:30:00
10:50 AM,68.0,50.0,52,30.23,10.0,ESE,3.5,-,N/A,,Clear,120,2012-10-14 17:50:00
11:10 AM,69.8,50.0,49,30.22,10.0,South,3.5,-,N/A,,Clear,170,2012-10-14 18:10:00
11:30 AM,69.8,50.0,49,30.21,10.0,SW,4.6,-,N/A,,Clear,220,2012-10-14 18:30:00
11:50 AM,71.6,50.0,46,30.21,10.0,Calm,Calm,-,N/A,,Clear,0,2012-10-14 18:50:00
12:10 PM,71.6,50.0,46,30.20,9.0,Calm,Calm,-,N/A,,Clear,0,2012-10-14 19:10:00
12:30 PM,73.4,50.0,44,30.19,10.0,SSW,3.5,-,N/A,,Clear,210,2012-10-14 19:30:00
12:50 PM,73.4,50.0,44,30.18,10.0,South,3.5,-,N/A,,Clear,180,2012-10-14 19:50:00
1:10 PM,75.2,50.0,41,30.17,10.0,Calm,Calm,-,N/A,,Clear,0,2012-10-14 20:10:00
1:30 PM,75.2,50.0,41,30.16,10.0,Calm,Calm,-,N/A,,Clear,0,2012-10-14 20:30:00
1:50 PM,75.2,50.0,41,30.15,10.0,SSW,3.5,-,N/A,,Clear,200,2012-10-14 20:50:00
2:10 PM,75.2,50.0,41,30.14,10.0,West,3.5,-,N/A,,Clear,270,2012-10-14 21:10:00
2:30 PM,77.0,50.0,39,30.13,9.0,Calm,Calm,-,N/A,,Clear,0,2012-10-14 21:30:00
2:50 PM,77.0,50.0,39,30.12,10.0,Calm,Calm,-,N/A,,Clear,0,2012-10-14 21:50:00
3:10 PM,77.0,50.0,39,30.11,9.0,WNW,5.8,-,N/A,,Clear,290,2012-10-14 22:10:00
3:30 PM,77.0,50.0,39,30.10,8.0,NW,5.8,-,N/A,,Clear,320,2012-10-14 22:30:00
3:50 PM,77.0,50.0,39,30.10,10.0,NNW,3.5,-,N/A,,Clear,340,2012-10-14 22:50:00
4:10 PM,77.0,50.0,39,30.09,10.0,NW,5.8,-,N/A,,Clear,320,2012-10-14 23:10:00
4:30 PM,77.0,50.0,39,30.08,10.0,WNW,8.1,-,N/A,,Clear,290,2012-10-14 23:30:00
4:50 PM,77.0,50.0,39,30.08,10.0,West,5.8,-,N/A,,Clear,280,2012-10-14 23:50:00
5:10 PM,77.0,50.0,39,30.08,10.0,NNW,6.9,-,N/A,,Clear,330,2012-10-15 00:10:00
5:30 PM,77.0,50.0,39,30.07,10.0,NW,4.6,-,N/A,,Clear,310,2012-10-15 00:30:00
5:50 PM,75.2,50.0,41,30.07,10.0,WNW,5.8,-,N/A,,Clear,290,2012-10-15 00:50:00
6:10 PM,73.4,50.0,44,30.07,10.0,NW,4.6,-,N/A,,Clear,310,2012-10-15 01:10:00
6:30 PM,73.4,50.0,44,30.07,10.0,NW,3.5,-,N/A,,Clear,310,2012-10-15 01:30:00
6:50 PM,71.6,50.0,46,30.07,10.0,NW,3.5,-,N/A,,Clear,320,2012-10-15 01:50:00
7:10 PM,69.8,50.0,49,30.06,10.0,Calm,Calm,-,N/A,,Clear,0,2012-10-15 02:10:00
7:30 PM,69.8,51.8,53,30.06,10.0,Calm,Calm,-,N/A,,Clear,0,2012-10-15 02:30:00
7:50 PM,68.0,50.0,52,30.07,10.0,Calm,Calm,-,N/A,,Clear,0,2012-10-15 02:50:00
8:10 PM,68.0,51.8,56,30.07,10.0,Calm,Calm,-,N/A,,Clear,0,2012-10-15 03:10:00
8:30 PM,68.0,51.8,56,30.07,10.0,Calm,Calm,-,N/A,,Clear,0,2012-10-15 03:30:00
8:50 PM,68.0,51.8,56,30.07,10.0,Calm,Calm,-,N/A,,Clear,0,2012-10-15 03:50:00
9:10 PM,66.2,50.0,56,30.08,10.0,Calm,Calm,-,N/A,,Clear,0,2012-10-15 04:10:00
9:30 PM,66.2,50.0,56,30.08,10.0,Calm,Calm,-,N/A,,Clear,0,2012-10-15 04:30:00
9:50 PM,64.4,50.0,59,30.08,10.0,Calm,Calm,-,N/A,,Clear,0,2012-10-15 04:50:00
10:10 PM,64.4,51.8,64,30.08,10.0,Calm,Calm,-,N/A,,Clear,0,2012-10-15 05:10:00
10:30 PM,64.4,51.8,64,30.08,10.0,Calm,Calm,-,N/A,,Clear,0,2012-10-15 05:30:00
10:50 PM,64.4,51.8,64,30.07,10.0,ESE,4.6,-,N/A,,Clear,110,2012-10-15 05:50:00
11:10 PM,64.4,51.8,64,30.07,10.0,Calm,Calm,-,N/A,,Clear,0,2012-10-15 06:10:00
11:30 PM,62.6,50.0,63,30.07,10.0,Calm,Calm,-,N/A,,Clear,0,2012-10-15 06:30:00
11:50 PM,62.6,53.6,72,30.06,10.0,SE,9.2,-,N/A,,Clear,140,2012-10-15 06:50:00